Time;durP1;ratioP1;P1;durP2;ratioP2;P2;SDS_P1;SDS_P2;PMS_P1;PMS_P2;Temp;Humidity;BMP_temperature;BMP_pressure;BME280_temperature;BME280_humidity;BME280_pressure;Samples;Min_cycle;Max_cycle;Signal;HPM_P1;HPM_P2
2022/05/21 00:01:36;;;;;;;10.33;3.80;;;19.10;99.90;;;;;;5073302;28;20455;-57
2022/05/21 00:04:04;;;;;;;6.37;4.70;;;19.00;99.90;;;;;;5073248;28;20447;-56
2022/05/21 00:06:31;;;;;;;5.27;4.27;;;19.10;99.90;;;;;;5073148;28;20444;-56
2022/05/21 00:08:58;;;;;;;5.23;4.73;;;19.00;99.90;;;;;;5073166;28;20872;-56
2022/05/21 00:11:27;;;;;;;7.07;4.33;;;18.90;99.90;;;;;;5073092;28;20546;-57
2022/05/21 00:13:57;;;;;;;5.53;4.30;;;19.00;99.90;;;;;;5072805;28;21089;-57
2022/05/21 00:16:24;;;;;;;5.17;4.80;;;18.80;99.90;;;;;;5073223;28;20444;-57
2022/05/21 00:18:51;;;;;;;6.03;4.83;;;18.80;99.90;;;;;;5072951;28;20517;-56
2022/05/21 00:21:18;;;;;;;5.67;4.40;;;18.70;99.90;;;;;;5073175;28;20455;-56
2022/05/21 00:23:46;;;;;;;5.10;4.60;;;18.70;99.90;;;;;;5072726;28;20444;-56
2022/05/21 00:26:15;;;;;;;4.70;4.20;;;18.70;99.90;;;;;;5075024;28;20444;-57
2022/05/21 00:28:46;;;;;;;5.30;4.80;;;18.60;99.90;;;;;;5076803;28;20525;-56
2022/05/21 00:31:15;;;;;;;5.37;3.73;;;18.60;99.90;;;;;;5076940;28;20435;-56
2022/05/21 00:33:43;;;;;;;5.57;4.73;;;18.60;99.90;;;;;;5076875;28;20491;-57
2022/05/21 00:36:11;;;;;;;6.60;3.97;;;18.50;99.90;;;;;;5076739;28;20436;-56
2022/05/21 00:38:40;;;;;;;3.70;3.40;;;18.40;99.90;;;;;;5076717;28;20510;-57
2022/05/21 00:41:08;;;;;;;5.00;4.23;;;18.30;99.90;;;;;;5076277;28;20456;-56
2022/05/21 00:43:43;;;;;;;4.80;4.00;;;18.20;99.90;;;;;;5076679;28;20451;-56
2022/05/21 00:46:14;;;;;;;4.43;4.00;;;18.20;99.90;;;;;;5076371;28;20405;-57
2022/05/21 00:48:43;;;;;;;4.10;3.70;;;18.10;99.90;;;;;;5076791;28;20468;-56
2022/05/21 00:51:14;;;;;;;5.80;4.37;;;18.10;99.90;;;;;;5076510;28;20898;-56
2022/05/21 00:53:42;;;;;;;4.20;3.80;;;18.00;99.90;;;;;;5076447;28;20428;-57
2022/05/21 00:56:11;;;;;;;3.80;3.50;;;18.10;99.90;;;;;;5075910;28;20931;-56
2022/05/21 01:01:29;;;;;;;4.57;3.90;;;18.00;99.90;;;;;;5076099;28;20412;-56
2022/05/21 01:03:56;;;;;;;7.03;4.37;;;18.00;99.90;;;;;;5076446;28;20448;-56
2022/05/21 01:06:24;;;;;;;3.90;3.50;;;17.90;99.90;;;;;;5075950;28;20447;-57
2022/05/21 01:08:51;;;;;;;10.13;4.23;;;17.80;99.90;;;;;;5076246;28;20500;-56
2022/05/21 01:11:20;;;;;;;4.53;3.90;;;17.80;99.90;;;;;;5075751;28;20935;-56
2022/05/21 01:13:51;;;;;;;6.00;4.13;;;17.70;99.90;;;;;;5075708;28;20452;-56
2022/05/21 01:16:19;;;;;;;3.50;3.30;;;17.80;99.90;;;;;;5076037;28;20500;-57
2022/05/21 01:18:48;;;;;;;4.70;3.23;;;17.70;99.90;;;;;;5075961;28;20500;-56
2022/05/21 01:21:15;;;;;;;4.63;4.23;;;17.60;99.90;;;;;;5076275;28;20447;-56
2022/05/21 01:23:44;;;;;;;3.40;3.10;;;17.70;99.90;;;;;;5075940;28;20448;-56
2022/05/21 01:26:15;;;;;;;3.30;3.00;;;17.70;99.90;;;;;;5075310;28;20505;-56
2022/05/21 01:28:43;;;;;;;5.90;3.27;;;17.60;99.90;;;;;;5075757;28;20508;-56
2022/05/21 01:31:10;;;;;;;7.93;3.77;;;17.60;99.90;;;;;;5075779;28;20578;-56
2022/05/21 01:33:40;;;;;;;5.33;3.90;;;17.50;99.90;;;;;;5075754;28;20472;-56
2022/05/21 01:36:09;;;;;;;4.60;2.77;;;17.60;99.90;;;;;;5075485;28;20484;-57
2022/05/21 01:38:38;;;;;;;4.43;3.43;;;17.60;99.90;;;;;;5074637;28;20468;-57
2022/05/21 01:41:09;;;;;;;5.60;3.30;;;17.50;99.90;;;;;;5075288;28;20531;-56
2022/05/21 01:46:23;;;;;;;5.77;3.60;;;17.50;99.90;;;;;;5075606;28;20483;-56
2022/05/21 01:48:51;;;;;;;4.00;3.60;;;17.40;99.90;;;;;;5075430;28;20464;-57
2022/05/21 01:51:19;;;;;;;5.97;3.33;;;17.40;99.90;;;;;;5075264;28;21100;-57
2022/05/21 01:53:47;;;;;;;3.80;3.40;;;17.40;99.90;;;;;;5074948;28;20480;-57
2022/05/21 01:56:16;;;;;;;4.77;4.07;;;17.30;99.90;;;;;;5075182;28;20472;-56
2022/05/21 01:58:44;;;;;;;3.80;3.50;;;17.30;99.90;;;;;;5074839;28;20507;-57
2022/05/21 02:01:12;;;;;;;4.30;3.90;;;17.20;99.90;;;;;;5074942;28;20448;-56
2022/05/21 02:03:40;;;;;;;6.43;3.67;;;17.00;99.90;;;;;;5075294;28;20783;-57
2022/05/21 02:06:08;;;;;;;4.33;3.50;;;16.90;99.90;;;;;;5075183;28;20524;-56
2022/05/21 02:08:36;;;;;;;4.40;4.10;;;16.90;99.90;;;;;;5075082;28;20460;-57
2022/05/21 02:11:04;;;;;;;4.53;3.60;;;16.90;99.90;;;;;;5075072;28;20590;-56
2022/05/21 02:13:34;;;;;;;4.33;3.73;;;16.80;99.90;;;;;;5074949;28;20958;-56
2022/05/21 02:16:01;;;;;;;3.90;3.50;;;16.70;99.90;;;;;;5074851;28;20590;-57
2022/05/21 02:18:29;;;;;;;3.83;3.53;;;16.60;99.90;;;;;;5074504;28;20504;-57
2022/05/21 02:20:56;;;;;;;5.33;3.67;;;16.60;99.90;;;;;;5074590;28;20445;-56
2022/05/21 02:23:24;;;;;;;4.10;3.70;;;16.50;99.90;;;;;;5074445;28;20543;-56
2022/05/21 02:25:52;;;;;;;3.27;3.07;;;16.50;99.90;;;;;;5074312;28;20444;-56
2022/05/21 02:28:19;;;;;;;5.40;4.30;;;16.50;99.90;;;;;;5074432;28;20988;-56
2022/05/21 02:30:48;;;;;;;5.57;4.20;;;16.50;99.90;;;;;;5074421;28;20435;-57
2022/05/21 02:33:15;;;;;;;6.70;3.67;;;16.50;99.90;;;;;;5074510;28;20445;-56
2022/05/21 02:35:43;;;;;;;4.83;3.80;;;16.60;99.90;;;;;;5074520;28;20486;-56
2022/05/21 02:40:55;;;;;;;4.40;4.00;;;16.50;99.90;;;;;;5074380;28;20412;-57
2022/05/21 02:43:23;;;;;;;3.90;3.60;;;16.60;99.90;;;;;;5072800;28;20480;-56
2022/05/21 02:45:51;;;;;;;4.60;4.20;;;16.70;99.90;;;;;;5074094;28;20429;-56
2022/05/21 02:48:19;;;;;;;7.40;4.43;;;16.70;99.90;;;;;;5073848;28;20563;-56
2022/05/21 02:50:46;;;;;;;4.67;4.23;;;16.60;99.90;;;;;;5073762;28;20535;-57
2022/05/21 02:53:17;;;;;;;5.83;4.43;;;16.60;99.90;;;;;;5073933;28;20444;-57
2022/05/21 02:55:44;;;;;;;5.60;4.93;;;16.30;99.90;;;;;;5073686;28;20476;-56
2022/05/21 02:58:11;;;;;;;8.40;4.40;;;16.20;99.90;;;;;;5073903;28;20464;-57
2022/05/21 03:00:38;;;;;;;6.80;4.37;;;16.00;99.90;;;;;;5073719;28;20450;-57
2022/05/21 03:03:07;;;;;;;5.60;4.33;;;16.00;99.90;;;;;;5073999;28;20445;-56
2022/05/21 03:05:35;;;;;;;5.77;4.70;;;16.00;99.90;;;;;;5073906;28;20447;-56
2022/05/21 03:10:20;;;;;;;4.57;4.17;;;15.90;99.90;;;;;;5073429;28;20482;-56
2022/05/21 03:10:51;;;;;;;4.43;4.03;;;16.00;99.90;;;;;;5073642;28;20427;-56
2022/05/21 03:13:18;;;;;;;4.07;3.77;;;16.10;99.90;;;;;;5073501;28;20865;-57
2022/05/21 03:15:46;;;;;;;4.50;4.07;;;16.10;99.90;;;;;;5074068;28;20468;-57
2022/05/21 03:18:16;;;;;;;5.50;4.93;;;16.00;99.90;;;;;;5073524;28;20543;-56
2022/05/21 03:20:43;;;;;;;5.20;4.70;;;15.80;99.90;;;;;;5073471;28;20445;-57
2022/05/21 03:23:11;;;;;;;4.83;4.23;;;15.70;99.90;;;;;;5073744;28;20445;-57
2022/05/21 03:25:39;;;;;;;4.57;4.23;;;15.70;99.90;;;;;;5073554;28;20448;-56
2022/05/21 03:28:07;;;;;;;4.97;4.10;;;15.60;99.90;;;;;;5073557;28;20510;-56
2022/05/21 03:30:34;;;;;;;5.20;4.73;;;15.60;99.90;;;;;;5073684;28;20532;-56
2022/05/21 03:33:02;;;;;;;5.77;4.43;;;15.70;99.90;;;;;;5073215;28;20539;-56
2022/05/21 03:35:32;;;;;;;7.77;4.47;;;15.70;99.90;;;;;;5073502;28;20487;-56
2022/05/21 03:38:00;;;;;;;4.40;4.00;;;15.50;99.90;;;;;;5073377;28;20478;-56
2022/05/21 03:40:30;;;;;;;4.53;4.00;;;15.50;99.90;;;;;;5073676;28;20479;-56
2022/05/21 03:42:57;;;;;;;7.90;5.03;;;15.40;99.90;;;;;;5072931;28;20838;-56
2022/05/21 03:45:25;;;;;;;4.57;4.17;;;15.30;99.90;;;;;;5073265;28;20435;-56
2022/05/21 03:47:52;;;;;;;7.23;5.47;;;15.20;99.90;;;;;;5073351;28;20448;-56
2022/05/21 03:50:22;;;;;;;6.30;4.67;;;15.20;99.90;;;;;;5073316;28;20531;-56
2022/05/21 03:52:51;;;;;;;6.87;4.27;;;15.30;99.90;;;;;;5072879;28;20483;-57
2022/05/21 03:55:18;;;;;;;5.07;4.33;;;15.30;99.90;;;;;;5072929;28;20961;-57
2022/05/21 03:57:46;;;;;;;7.50;4.60;;;15.20;99.90;;;;;;5073259;28;20552;-56
2022/05/21 04:00:17;;;;;;;5.73;4.73;;;15.30;99.90;;;;;;5072613;28;20490;-56
2022/05/21 04:02:44;;;;;;;5.57;5.03;;;15.30;99.90;;;;;;5073230;28;20471;-56
2022/05/21 04:05:13;;;;;;;5.13;4.60;;;15.30;99.90;;;;;;5073368;28;20454;-56
2022/05/21 04:07:41;;;;;;;5.40;4.57;;;15.40;99.90;;;;;;5072742;28;20939;-56
2022/05/21 04:10:11;;;;;;;5.30;4.80;;;15.30;99.90;;;;;;5072991;28;20471;-57
2022/05/21 04:12:38;;;;;;;4.47;4.17;;;15.30;99.90;;;;;;5073087;28;20448;-56
2022/05/21 04:15:07;;;;;;;3.90;3.60;;;15.20;99.90;;;;;;5073367;28;20570;-56
2022/05/21 04:17:35;;;;;;;7.90;4.17;;;15.30;99.90;;;;;;5073102;28;20448;-57
2022/05/21 04:20:03;;;;;;;6.27;4.33;;;15.30;99.90;;;;;;5073242;28;20490;-57
2022/05/21 04:22:30;;;;;;;5.17;4.67;;;15.30;99.90;;;;;;5072675;28;20923;-57
2022/05/21 04:24:57;;;;;;;4.67;4.37;;;15.10;99.90;;;;;;5072959;28;20451;-56
2022/05/21 04:27:26;;;;;;;5.83;5.10;;;15.00;99.90;;;;;;5072956;28;20463;-56
2022/05/21 04:29:53;;;;;;;5.00;4.50;;;14.90;99.90;;;;;;5072762;28;20475;-57
2022/05/21 04:32:20;;;;;;;4.90;4.50;;;14.80;99.90;;;;;;5072921;28;20448;-56
2022/05/21 04:34:47;;;;;;;4.90;4.43;;;14.80;99.90;;;;;;5072655;28;20543;-56
2022/05/21 04:37:15;;;;;;;4.60;4.23;;;14.80;99.90;;;;;;5072898;28;20456;-56
2022/05/21 04:39:42;;;;;;;5.37;4.80;;;14.80;99.90;;;;;;5072663;28;20993;-56
2022/05/21 04:42:09;;;;;;;5.03;4.53;;;14.80;99.90;;;;;;5072293;28;20472;-56
2022/05/21 04:44:38;;;;;;;4.60;4.03;;;14.80;99.90;;;;;;5072479;28;21042;-56
2022/05/21 04:47:06;;;;;;;4.10;3.70;;;14.80;99.90;;;;;;5072835;28;20475;-56
2022/05/21 04:49:38;;;;;;;4.50;4.17;;;14.70;99.90;;;;;;5073044;28;20470;-57
2022/05/21 04:52:09;;;;;;;4.20;3.80;;;14.80;99.90;;;;;;5072751;28;20427;-57
2022/05/21 04:54:37;;;;;;;5.50;3.73;;;15.00;99.90;;;;;;5073080;28;20440;-57
2022/05/21 04:57:06;;;;;;;3.97;3.57;;;15.10;99.90;;;;;;5072131;28;20453;-57
2022/05/21 04:59:33;;;;;;;4.33;3.93;;;15.20;99.90;;;;;;5072673;28;20468;-57
2022/05/21 05:02:02;;;;;;;4.03;3.27;;;15.30;99.90;;;;;;5072670;28;20452;-57
2022/05/21 05:04:29;;;;;;;6.10;4.00;;;15.20;99.90;;;;;;5072902;28;20444;-57
2022/05/21 05:06:56;;;;;;;3.90;3.60;;;15.10;99.90;;;;;;5072149;28;20478;-57
2022/05/21 05:09:23;;;;;;;3.47;3.17;;;15.10;99.90;;;;;;5072685;28;20555;-57
2022/05/21 05:11:53;;;;;;;4.50;4.10;;;15.30;99.90;;;;;;5072330;28;20935;-57
2022/05/21 05:14:21;;;;;;;3.03;2.83;;;15.30;99.90;;;;;;5075824;28;20466;-57
2022/05/21 05:16:48;;;;;;;4.57;3.33;;;15.40;99.90;;;;;;5076031;28;20472;-57
2022/05/21 05:19:16;;;;;;;4.10;2.93;;;15.40;99.90;;;;;;5075799;28;20479;-57
2022/05/21 05:21:43;;;;;;;4.40;3.10;;;15.30;99.90;;;;;;5075606;28;20812;-56
2022/05/21 05:24:11;;;;;;;4.00;3.13;;;15.40;99.90;;;;;;5075675;28;20535;-57
2022/05/21 05:26:38;;;;;;;4.57;3.30;;;15.50;99.90;;;;;;5075743;28;20476;-57
2022/05/21 05:29:05;;;;;;;2.97;2.77;;;15.50;99.90;;;;;;5075658;28;20474;-57
2022/05/21 05:31:32;;;;;;;3.27;3.00;;;15.50;99.90;;;;;;5075796;28;20452;-57
2022/05/21 05:34:00;;;;;;;2.90;2.70;;;15.60;99.90;;;;;;5075411;28;20433;-57
2022/05/21 05:36:29;;;;;;;3.33;3.00;;;15.60;99.90;;;;;;5075714;28;20476;-55
2022/05/21 05:38:59;;;;;;;4.03;3.63;;;15.60;99.90;;;;;;5075692;28;20464;-59
2022/05/21 05:41:26;;;;;;;3.17;2.40;;;15.60;99.90;;;;;;5075526;28;20429;-56
2022/05/21 05:43:54;;;;;;;3.53;2.63;;;15.70;99.90;;;;;;5075176;28;20534;-56
2022/05/21 05:46:22;;;;;;;3.83;2.50;;;15.90;99.90;;;;;;5075789;28;20484;-56
2022/05/21 05:48:50;;;;;;;2.97;2.70;;;16.00;99.90;;;;;;5075165;28;21025;-56
2022/05/21 05:51:18;;;;;;;2.33;2.10;;;16.10;99.90;;;;;;5075273;28;20444;-56
2022/05/21 05:53:47;;;;;;;2.87;2.60;;;16.20;99.90;;;;;;5075299;28;20451;-56
2022/05/21 05:56:15;;;;;;;3.50;2.37;;;16.30;99.90;;;;;;5075241;28;20456;-56
2022/05/21 06:01:27;;;;;;;3.50;2.83;;;16.40;99.90;;;;;;5075272;28;20404;-56
2022/05/21 06:03:55;;;;;;;3.40;3.20;;;16.30;99.90;;;;;;5074892;28;20456;-56
2022/05/21 06:06:22;;;;;;;5.43;2.87;;;16.40;99.90;;;;;;5074776;28;20500;-56
2022/05/21 06:08:51;;;;;;;5.80;2.60;;;16.40;99.90;;;;;;5074822;28;20475;-56
2022/05/21 06:11:19;;;;;;;2.73;2.37;;;16.40;99.90;;;;;;5074838;28;20459;-56
2022/05/21 06:13:46;;;;;;;4.13;2.40;;;16.40;99.90;;;;;;5074740;28;20460;-56
2022/05/21 06:16:14;;;;;;;2.73;2.53;;;16.50;99.90;;;;;;5074795;28;20468;-56
2022/05/21 06:18:41;;;;;;;2.53;2.33;;;16.60;99.90;;;;;;5074673;28;20536;-56
2022/05/21 06:21:09;;;;;;;3.00;2.40;;;16.70;99.90;;;;;;5074557;28;20522;-56
2022/05/21 06:23:37;;;;;;;3.33;2.10;;;16.80;99.90;;;;;;5074375;28;20964;-56
2022/05/21 06:26:06;;;;;;;2.33;2.13;;;16.80;99.90;;;;;;5073930;28;20478;-56
2022/05/21 06:28:38;;;;;;;2.60;2.40;;;16.80;99.90;;;;;;5074780;28;20837;-56
2022/05/21 06:31:05;;;;;;;2.53;2.33;;;16.80;99.90;;;;;;5074005;28;20452;-56
2022/05/21 06:33:33;;;;;;;2.53;2.30;;;16.90;99.90;;;;;;5074643;28;20471;-57
2022/05/21 06:36:07;;;;;;;3.40;2.57;;;16.90;99.90;;;;;;5074141;28;20444;-57
2022/05/21 06:38:35;;;;;;;2.10;2.00;;;16.70;99.90;;;;;;5074183;28;20971;-57
2022/05/21 06:41:02;;;;;;;3.40;2.73;;;16.80;99.90;;;;;;5074584;28;20456;-57
2022/05/21 06:43:31;;;;;;;2.60;2.40;;;16.80;99.90;;;;;;5073751;28;20559;-57
2022/05/21 06:45:59;;;;;;;2.73;2.27;;;16.90;99.90;;;;;;5074185;28;20558;-57
2022/05/21 06:48:26;;;;;;;2.80;1.90;;;17.00;99.90;;;;;;5073987;28;20500;-56
2022/05/21 06:50:56;;;;;;;2.60;2.07;;;16.90;99.90;;;;;;5074158;28;20451;-57
2022/05/21 06:53:23;;;;;;;2.80;2.03;;;17.00;99.90;;;;;;5074208;28;20444;-56
2022/05/21 06:55:50;;;;;;;1.93;1.73;;;17.00;99.90;;;;;;5073966;28;20466;-56
2022/05/21 06:58:17;;;;;;;1.90;1.77;;;17.00;99.90;;;;;;5073889;28;20468;-56
2022/05/21 07:00:46;;;;;;;2.17;1.97;;;17.20;99.90;;;;;;5074156;28;20539;-56
2022/05/21 07:03:13;;;;;;;3.20;1.90;;;17.40;99.90;;;;;;5074241;28;20455;-56
2022/05/21 07:08:28;;;;;;;2.10;1.93;;;17.60;99.90;;;;;;5073525;28;20483;-57
2022/05/21 07:10:55;;;;;;;3.40;1.80;;;17.80;99.90;;;;;;5074207;28;20441;-57
2022/05/21 07:13:23;;;;;;;4.47;2.50;;;17.80;99.90;;;;;;5073782;28;20467;-56
2022/05/21 07:15:54;;;;;;;2.00;1.80;;;17.70;99.90;;;;;;5073422;28;20433;-56
2022/05/21 07:18:23;;;;;;;2.30;1.80;;;18.00;99.90;;;;;;5073324;28;21092;-57
2022/05/21 07:20:50;;;;;;;2.43;2.23;;;18.40;99.90;;;;;;5073568;28;20478;-57
2022/05/21 07:23:18;;;;;;;3.53;1.90;;;19.00;99.90;;;;;;5073573;28;20444;-56
2022/05/21 07:25:47;;;;;;;2.20;2.00;;;19.60;99.90;;;;;;5073159;28;20891;-56
2022/05/21 07:28:15;;;;;;;2.27;2.07;;;20.20;99.90;;;;;;5073261;28;20491;-54
2022/05/21 07:30:44;;;;;;;1.90;1.80;;;20.80;99.90;;;;;;5077537;28;20480;-54
2022/05/21 07:33:15;;;;;;;1.70;1.60;;;21.90;99.90;;;;;;5073014;28;20444;-53
2022/05/21 07:35:43;;;;;;;3.30;1.80;;;22.50;99.90;;;;;;5076192;28;20994;-55
2022/05/21 07:38:11;;;;;;;2.20;1.83;;;;;;;;;;5071915;28;20444;-54
2022/05/21 07:40:42;;;;;;;2.90;1.90;;;22.90;98.50;;;;;;5073232;28;20445;-55
2022/05/21 07:43:14;;;;;;;1.70;1.60;;;23.60;99.10;;;;;;5072173;28;20962;-54
2022/05/21 07:45:42;;;;;;;2.10;1.67;;;24.20;96.10;;;;;;5069670;28;20436;-56
2022/05/21 07:48:13;;;;;;;5.70;1.80;;;23.70;92.10;;;;;;5052804;28;20476;-56
2022/05/21 07:50:41;;;;;;;1.80;1.60;;;23.30;93.40;;;;;;5047499;28;20452;-57
2022/05/21 07:53:11;;;;;;;1.57;1.43;;;22.90;92.10;;;;;;5047450;28;20483;-55
2022/05/21 07:55:39;;;;;;;1.83;1.70;;;22.80;92.20;;;;;;5047482;28;20448;-55
2022/05/21 07:58:06;;;;;;;3.50;1.83;;;24.00;93.60;;;;;;5048001;28;20468;-56
2022/05/21 08:00:34;;;;;;;1.50;1.40;;;25.00;91.90;;;;;;5050649;28;20460;-56
2022/05/21 08:03:01;;;;;;;2.07;1.90;;;25.20;87.90;;;;;;5050560;28;20895;-57
2022/05/21 08:05:30;;;;;;;1.93;1.40;;;25.50;87.30;;;;;;5049583;28;20552;-56
2022/05/21 08:07:57;;;;;;;1.40;1.23;;;25.20;87.00;;;;;;5050416;28;21275;-54
2022/05/21 08:10:24;;;;;;;2.87;1.53;;;25.20;85.70;;;;;;5047771;28;20464;-54
2022/05/21 08:12:53;;;;;;;1.40;1.30;;;26.10;85.60;;;;;;5047920;28;20555;-54
2022/05/21 08:15:22;;;;;;;3.43;1.60;;;26.40;80.90;;;;;;5045919;28;20475;-58
2022/05/21 08:17:49;;;;;;;7.13;1.30;;;26.30;82.50;;;;;;5058861;28;20692;-58
2022/05/21 08:20:19;;;;;;;2.13;1.50;;;26.50;77.40;;;;;;5068351;28;20468;-59
2022/05/21 08:28:18;;;;;;;2.90;1.30;;;25.70;82.40;;;;;;5042369;28;20538;-57
2022/05/21 08:30:48;;;;;;;1.50;1.10;;;25.90;79.60;;;;;;5044541;28;20448;-54
2022/05/21 08:33:17;;;;;;;1.80;1.40;;;26.60;74.80;;;;;;5045233;28;21278;-58
2022/05/21 08:35:45;;;;;;;2.20;1.17;;;26.10;76.10;;;;;;5054148;28;20973;-58
2022/05/21 08:38:15;;;;;;;3.13;1.33;;;25.40;74.40;;;;;;5050365;28;20463;-58
2022/05/21 08:40:56;;;;;;;1.50;1.30;;;25.30;82.20;;;;;;5044884;28;20455;-58
2022/05/21 08:43:25;;;;;;;1.43;1.30;;;25.40;74.20;;;;;;5055960;28;20487;-58
2022/05/21 08:46:07;;;;;;;3.07;1.30;;;25.40;76.40;;;;;;5056403;28;20525;-60
2022/05/21 08:48:35;;;;;;;1.50;1.27;;;26.10;75.80;;;;;;5054844;28;21265;-60
2022/05/21 08:51:12;;;;;;;1.30;1.20;;;26.60;70.50;;;;;;5057285;28;20575;-59
2022/05/21 08:53:49;;;;;;;1.37;1.27;;;26.30;74.20;;;;;;5059466;28;20447;-61
2022/05/21 08:56:17;;;;;;;1.53;1.37;;;26.70;71.80;;;;;;5058257;28;20467;-58
2022/05/21 08:58:48;;;;;;;1.40;1.27;;;27.20;71.90;;;;;;5058678;28;20479;-59
2022/05/21 09:01:18;;;;;;;1.30;1.20;;;27.60;71.10;;;;;;5052796;28;20452;-60
2022/05/21 09:03:45;;;;;;;1.53;1.40;;;27.80;68.10;;;;;;5050155;28;20792;-55
2022/05/21 09:06:24;;;;;;;3.27;1.60;;;26.70;68.60;;;;;;5051705;28;20450;-61
2022/05/21 09:08:58;;;;;;;2.00;1.60;;;26.80;69.80;;;;;;5050757;28;20467;-58
2022/05/21 09:11:34;;;;;;;1.60;1.23;;;27.00;69.40;;;;;;5056586;28;20454;-58
2022/05/21 09:14:06;;;;;;;1.40;1.30;;;27.00;69.30;;;;;;5059770;28;20594;-53
2022/05/21 09:16:57;;;;;;;4.20;1.60;;;27.20;69.30;;;;;;5057281;28;20447;-53
2022/05/21 09:19:26;;;;;;;4.43;1.50;;;27.30;68.60;;;;;;5053436;28;20487;-54
2022/05/21 09:22:01;;;;;;;2.53;1.60;;;27.70;69.40;;;;;;5056179;28;20453;-59
2022/05/21 09:24:42;;;;;;;3.20;1.30;;;27.80;66.70;;;;;;5056094;28;20461;-54
2022/05/21 09:27:28;;;;;;;1.97;1.63;;;27.50;67.60;;;;;;5058540;28;20481;-55
2022/05/21 09:30:11;;;;;;;2.43;1.40;;;27.70;68.10;;;;;;5056548;28;20487;-57
2022/05/21 09:32:40;;;;;;;1.63;1.40;;;27.20;66.60;;;;;;5051413;28;20641;-59
2022/05/21 09:35:11;;;;;;;2.90;1.40;;;27.50;67.40;;;;;;5051409;28;20618;-57
2022/05/21 09:37:40;;;;;;;1.70;1.30;;;27.70;66.80;;;;;;5060005;28;20452;-58
2022/05/21 09:40:24;;;;;;;1.93;1.27;;;27.50;68.10;;;;;;5057828;28;20482;-61
2022/05/21 09:45:38;;;;;;;3.23;1.70;;;27.90;65.60;;;;;;5058688;28;20502;-58
2022/05/21 09:48:18;;;;;;;1.50;1.40;;;27.30;66.30;;;;;;5058639;28;20484;-57
2022/05/21 09:50:48;;;;;;;2.63;1.50;;;28.10;66.50;;;;;;5050723;28;20814;-55
2022/05/21 09:53:26;;;;;;;2.27;1.33;;;28.20;67.10;;;;;;5049348;28;20895;-59
2022/05/21 09:56:05;;;;;;;2.43;1.33;;;28.10;64.00;;;;;;5050738;28;20467;-53
2022/05/21 09:58:36;;;;;;;2.30;1.50;;;26.80;63.40;;;;;;5050235;28;20460;-55
2022/05/21 10:01:04;;;;;;;1.73;1.10;;;27.40;65.10;;;;;;5059085;28;20470;-56
2022/05/21 10:03:40;;;;;;;3.00;1.23;;;27.40;63.80;;;;;;5059146;28;20536;-57
2022/05/21 10:06:19;;;;;;;1.40;1.30;;;27.80;64.80;;;;;;5060243;28;20636;-56
2022/05/21 10:11:41;;;;;;;2.33;1.47;;;27.60;65.40;;;;;;5056873;28;20912;-57
2022/05/21 10:14:13;;;;;;;2.73;1.57;;;27.80;64.60;;;;;;5058706;28;21235;-58
2022/05/21 10:16:46;;;;;;;2.80;2.27;;;27.80;67.30;;;;;;5059107;28;21001;-54
2022/05/21 10:19:19;;;;;;;1.90;1.40;;;27.50;66.20;;;;;;5059690;28;20484;-54
2022/05/21 10:22:01;;;;;;;2.23;1.70;;;26.80;67.70;;;;;;5056499;28;20498;-54
2022/05/21 10:24:42;;;;;;;4.13;2.03;;;27.30;65.40;;;;;;5057013;28;20903;-50
2022/05/21 10:27:21;;;;;;;3.87;2.07;;;27.40;67.40;;;;;;5057587;28;21407;-52
2022/05/21 10:29:59;;;;;;;4.07;1.80;;;27.70;64.10;;;;;;5057065;28;20475;-60
2022/05/21 10:32:48;;;;;;;1.40;1.30;;;28.10;64.20;;;;;;5055634;28;20906;-59
2022/05/21 10:35:33;;;;;;;1.47;1.30;;;27.60;65.10;;;;;;5057548;28;20439;-56
2022/05/21 10:38:06;;;;;;;2.07;1.53;;;28.00;64.30;;;;;;5063013;28;20555;-56
2022/05/21 10:40:40;;;;;;;1.80;1.40;;;28.20;62.90;;;;;;5048562;28;20916;-55
2022/05/21 10:43:33;;;;;;;4.07;1.50;;;26.70;62.40;;;;;;5046915;28;20518;-56
2022/05/21 10:46:13;;;;;;;3.00;1.80;;;27.10;64.80;;;;;;5052204;28;21287;-55
2022/05/21 10:48:59;;;;;;;2.40;1.80;;;27.70;63.20;;;;;;5053705;28;20925;-56
2022/05/21 10:51:32;;;;;;;1.90;1.53;;;28.20;65.30;;;;;;5051467;28;20547;-58
2022/05/21 10:54:18;;;;;;;2.67;1.70;;;28.10;62.90;;;;;;5059271;28;20530;-57
2022/05/21 10:56:53;;;;;;;4.27;1.60;;;28.10;63.20;;;;;;5057538;28;20453;-56
2022/05/21 10:59:41;;;;;;;1.90;1.40;;;27.90;63.80;;;;;;5053295;28;20470;-55
2022/05/21 11:02:40;;;;;;;1.90;1.30;;;27.50;62.10;;;;;;5051535;28;20529;-50
2022/05/21 11:05:30;;;;;;;2.23;1.60;;;27.20;64.70;;;;;;5059297;28;21013;-52
2022/05/21 11:08:05;;;;;;;1.70;1.40;;;27.40;64.00;;;;;;5058959;28;20476;-55
2022/05/21 11:10:39;;;;;;;3.60;1.63;;;27.10;62.50;;;;;;5050442;28;20903;-55
2022/05/21 11:13:14;;;;;;;4.23;1.60;;;26.90;62.80;;;;;;5055648;28;20898;-57
2022/05/21 11:15:47;;;;;;;2.47;1.50;;;26.80;62.80;;;;;;5058818;28;20455;-53
2022/05/21 11:18:20;;;;;;;3.17;1.70;;;27.10;65.50;;;;;;5057591;28;22306;-50
2022/05/21 11:20:54;;;;;;;4.03;1.63;;;26.90;62.70;;;;;;5048648;28;20452;-57
2022/05/21 11:23:25;;;;;;;3.83;1.53;;;27.20;62.50;;;;;;5048520;28;20451;-58
2022/05/21 11:25:59;;;;;;;1.87;1.77;;;27.40;64.30;;;;;;5048613;28;20905;-56
2022/05/21 11:28:34;;;;;;;2.00;1.80;;;27.20;61.70;;;;;;5049347;28;20606;-54
2022/05/21 11:31:08;;;;;;;6.33;2.87;;;27.10;63.00;;;;;;5047819;28;20852;-52
2022/05/21 11:39:16;;;;;;;2.77;1.63;;;27.30;61.30;;;;;;5048182;28;21313;-58
2022/05/21 11:42:14;;;;;;;3.10;1.30;;;26.60;60.20;;;;;;5052232;28;20597;-56
2022/05/21 11:44:59;;;;;;;2.10;1.50;;;26.40;60.90;;;;;;5055312;28;20572;-54
2022/05/21 11:47:51;;;;;;;4.70;2.07;;;26.10;64.10;;;;;;5045777;28;20472;-58
2022/05/21 11:50:31;;;;;;;3.10;1.60;;;26.50;62.10;;;;;;5042962;28;20444;-58
2022/05/21 11:53:09;;;;;;;2.00;1.30;;;26.30;63.00;;;;;;5047325;28;20443;-58
2022/05/21 11:55:58;;;;;;;1.50;1.40;;;26.70;63.00;;;;;;5046647;28;20464;-56
2022/05/21 11:58:47;;;;;;;1.70;1.60;;;26.80;62.80;;;;;;5048044;28;20776;-59
2022/05/21 12:01:51;;;;;;;3.00;1.40;;;26.60;60.40;;;;;;5030636;28;20913;-60
2022/05/21 12:04:50;;;;;;;2.90;1.63;;;26.50;61.30;;;;;;5041225;28;20440;-62
2022/05/21 12:07:38;;;;;;;3.70;1.93;;;26.40;61.00;;;;;;5041842;28;20523;-60
2022/05/21 12:10:12;;;;;;;1.80;1.50;;;26.30;59.90;;;;;;5036779;28;20484;-59
2022/05/21 12:13:07;;;;;;;2.60;1.73;;;26.50;60.10;;;;;;5034082;28;20467;-57
2022/05/21 12:15:37;;;;;;;3.27;2.00;;;26.50;59.60;;;;;;5042649;28;20437;-56
2022/05/21 12:18:09;;;;;;;4.33;1.50;;;26.30;59.50;;;;;;5045665;28;20440;-57
2022/05/21 12:20:45;;;;;;;1.33;1.23;;;26.20;59.60;;;;;;5043869;28;20432;-57
2022/05/21 12:23:15;;;;;;;4.30;2.37;;;25.90;59.40;;;;;;5045869;28;20447;-58
2022/05/21 12:26:00;;;;;;;6.30;1.80;;;26.40;59.90;;;;;;5046313;28;20481;-59
2022/05/21 12:28:47;;;;;;;1.90;1.70;;;27.20;59.90;;;;;;5054450;28;20924;-58
2022/05/21 12:31:23;;;;;;;1.63;1.53;;;27.70;59.40;;;;;;5047440;28;20847;-55
2022/05/21 12:34:14;;;;;;;2.40;1.70;;;27.90;57.50;;;;;;5046708;28;20466;-57
2022/05/21 12:36:50;;;;;;;2.13;1.70;;;28.20;58.40;;;;;;5047109;28;20878;-56
2022/05/21 12:39:23;;;;;;;1.40;1.20;;;28.20;56.90;;;;;;5055717;28;20469;-59
2022/05/21 12:41:53;;;;;;;2.37;1.57;;;28.00;58.10;;;;;;5053265;28;20463;-58
2022/05/21 12:44:38;;;;;;;2.03;1.63;;;27.70;58.80;;;;;;5053836;28;20851;-59
2022/05/21 12:47:06;;;;;;;4.73;1.60;;;28.00;57.10;;;;;;5054302;28;20477;-58
2022/05/21 12:49:37;;;;;;;1.90;1.47;;;28.00;57.20;;;;;;5055358;28;20822;-59
2022/05/21 12:52:05;;;;;;;3.73;1.50;;;28.40;56.90;;;;;;5072160;28;20907;-58
2022/05/21 12:54:33;;;;;;;3.43;1.60;;;27.60;57.10;;;;;;5072726;28;20934;-58
2022/05/21 12:57:12;;;;;;;2.50;1.60;;;27.90;56.40;;;;;;5074232;28;20495;-58
2022/05/21 12:59:40;;;;;;;3.27;2.00;;;28.20;57.30;;;;;;5075998;28;20474;-59
2022/05/21 13:02:13;;;;;;;3.30;1.47;;;28.40;56.90;;;;;;5076321;28;20532;-59
2022/05/21 13:04:45;;;;;;;4.37;1.93;;;28.60;55.50;;;;;;5075954;28;20433;-59
2022/05/21 13:07:15;;;;;;;2.57;1.70;;;28.40;56.30;;;;;;5076318;28;20433;-58
2022/05/21 13:09:53;;;;;;;2.43;1.80;;;28.50;55.50;;;;;;5076018;28;20471;-58
2022/05/21 13:12:21;;;;;;;2.10;1.20;;;27.90;56.40;;;;;;5076337;28;20511;-58
2022/05/21 13:14:50;;;;;;;1.80;1.70;;;27.90;55.80;;;;;;5076068;28;20983;-58
2022/05/21 13:17:32;;;;;;;2.07;1.40;;;27.60;54.70;;;;;;5075940;28;20447;-59
2022/05/21 13:20:19;;;;;;;2.07;1.80;;;28.20;55.60;;;;;;5075792;28;20468;-58
2022/05/21 13:23:06;;;;;;;3.07;1.50;;;28.60;56.60;;;;;;5076456;28;20814;-59
2022/05/21 13:25:33;;;;;;;1.97;1.50;;;28.50;54.60;;;;;;5076045;28;20456;-59
2022/05/21 13:28:00;;;;;;;2.90;1.50;;;27.50;53.90;;;;;;5076017;28;20502;-58
2022/05/21 13:30:32;;;;;;;3.90;1.97;;;27.20;56.10;;;;;;5076232;28;20547;-58
2022/05/21 13:33:01;;;;;;;3.00;1.60;;;27.20;55.10;;;;;;5074977;28;20441;-59
2022/05/21 13:35:34;;;;;;;2.47;1.60;;;27.40;55.60;;;;;;5076240;28;20454;-59
2022/05/21 13:38:03;;;;;;;6.70;1.63;;;27.10;54.70;;;;;;5075361;28;20421;-58
2022/05/21 13:40:32;;;;;;;1.60;1.30;;;26.90;54.40;;;;;;5075458;28;20448;-59